Little Rock Air Force Base
KLRF : now visible

Airfield :











YOU CAN JOIN US ON...

 
LOGIN :

Register | Disclaimer

   EN    FR    IT 

 









Legend :    VFR   Marginal VFR   IFR   Intensive IFR   Very Intensive IFR
Visi :
Ceiling :
>= 8 km
>= 3000ft
5 to 8 km
1000 to 3000 ft
1500m to 5 km
500 to 1000 ft
800 to 1500m
200 to 500 ft
< 800m
< 200 ft
Symbols :   Thunderstorms  Fog  Heavy snow  Heavy precipitations  Wind > 20 kt






- Airport Elevation : 311 ft


KLRF - Little Rock Air Force Base

CURRENT METAR :
  • 031356Z AUTO 07007KT 10SM BKN095 23/19 A3004 RMK AO2 SLP173 T02340185

EXPIRED METARs :
  • 031256Z AUTO 06005KT 10SM CLR 22/19 A3003 RMK AO2 SLP169 T02190185
  • 031156Z AUTO 07004KT 10SM OVC100 21/19 A3002 RMK AO2 SLP166 T02120191 10229 20208 52007

TAF TAF KLRF
Valid from the 03 at 07:00 until the 04 at 13:00 UTC


030701Z 0307/0413 VRB04KT 9999 SCT045 BKN130 BKN250 QNH3000INS
BECMG 0312/0313 06007KT 9999 SCT055 BKN100 BKN250 QNH2998INS
BECMG 0318/0319 07009KT 9999 SCT065 SCT250 QNH2995INS
BECMG 0404/0405 VRB03KT 9999 SCT070 BKN110 BKN250 QNH3001INS TX31/0321Z TN20/0311Z
KZME FIR / North America



MET'MAP, your aeronautical weather chart ! - Copyright ORBIFLY December 2007 - Disclaimer

ORBIFLY MET'MAP TEAM :

Programming & Development : Alexandra Zaïnal
Concept & original design : Baudouin d'Aumeries
Assistance for programming : Marc-Olivier Méhu
Technical & hardware support : Manuel Goepfert

Contact : metmap@orbifly.com




SOURCES & CREDITS :

   NOAA       Earth
Advisory